sensor_id;sensor_type;location;lat;lon;timestamp;P1;durP1;ratioP1;P2;durP2;ratioP2
23394;SDS011;11870;53.084;18.206;2023-09-19T00:02:17;28.85;;;19.92;;
23394;SDS011;11870;53.084;18.206;2023-09-19T00:04:43;27.35;;;19.35;;
23394;SDS011;11870;53.084;18.206;2023-09-19T00:07:10;30.63;;;20.02;;
23394;SDS011;11870;53.084;18.206;2023-09-19T00:09:36;28.10;;;20.40;;
23394;SDS011;11870;53.084;18.206;2023-09-19T00:12:06;26.45;;;19.85;;
23394;SDS011;11870;53.084;18.206;2023-09-19T00:14:34;26.67;;;19.08;;
23394;SDS011;11870;53.084;18.206;2023-09-19T00:17:04;28.70;;;18.00;;
23394;SDS011;11870;53.084;18.206;2023-09-19T00:19:31;27.20;;;20.10;;
23394;SDS011;11870;53.084;18.206;2023-09-19T00:21:58;27.80;;;18.85;;
23394;SDS011;11870;53.084;18.206;2023-09-19T00:24:24;25.80;;;19.70;;
23394;SDS011;11870;53.084;18.206;2023-09-19T00:26:50;29.00;;;19.63;;
23394;SDS011;11870;53.084;18.206;2023-09-19T00:29:16;31.50;;;19.98;;
23394;SDS011;11870;53.084;18.206;2023-09-19T00:31:43;30.17;;;18.92;;
23394;SDS011;11870;53.084;18.206;2023-09-19T00:34:09;29.80;;;19.67;;
23394;SDS011;11870;53.084;18.206;2023-09-19T00:36:39;29.73;;;19.25;;
23394;SDS011;11870;53.084;18.206;2023-09-19T00:39:06;29.40;;;19.70;;
23394;SDS011;11870;53.084;18.206;2023-09-19T00:41:34;31.10;;;20.70;;
23394;SDS011;11870;53.084;18.206;2023-09-19T00:44:03;31.25;;;19.00;;
23394;SDS011;11870;53.084;18.206;2023-09-19T00:46:30;30.90;;;21.13;;
23394;SDS011;11870;53.084;18.206;2023-09-19T00:48:57;25.95;;;19.35;;
23394;SDS011;11870;53.084;18.206;2023-09-19T00:51:24;27.48;;;19.00;;
23394;SDS011;11870;53.084;18.206;2023-09-19T00:53:54;27.50;;;19.60;;
23394;SDS011;11870;53.084;18.206;2023-09-19T00:56:20;30.08;;;19.70;;
23394;SDS011;11870;53.084;18.206;2023-09-19T00:58:47;25.23;;;19.60;;
23394;SDS011;11870;53.084;18.206;2023-09-19T01:01:13;28.08;;;19.15;;
23394;SDS011;11870;53.084;18.206;2023-09-19T01:03:40;26.70;;;20.33;;
23394;SDS011;11870;53.084;18.206;2023-09-19T01:06:07;29.38;;;18.35;;
23394;SDS011;11870;53.084;18.206;2023-09-19T01:08:34;24.23;;;16.98;;
23394;SDS011;11870;53.084;18.206;2023-09-19T01:14:13;18.65;;;12.90;;
23394;SDS011;11870;53.084;18.206;2023-09-19T01:19:12;14.40;;;9.60;;
23394;SDS011;11870;53.084;18.206;2023-09-19T01:24:51;12.52;;;8.30;;
23394;SDS011;11870;53.084;18.206;2023-09-19T01:30:35;12.90;;;7.82;;
23394;SDS011;11870;53.084;18.206;2023-09-19T01:33:05;14.18;;;9.23;;
23394;SDS011;11870;53.084;18.206;2023-09-19T01:35:32;14.25;;;8.93;;
23394;SDS011;11870;53.084;18.206;2023-09-19T01:37:59;12.02;;;9.18;;
23394;SDS011;11870;53.084;18.206;2023-09-19T01:40:25;13.48;;;8.68;;
23394;SDS011;11870;53.084;18.206;2023-09-19T01:42:59;18.05;;;8.18;;
23394;SDS011;11870;53.084;18.206;2023-09-19T01:45:44;11.82;;;7.93;;
23394;SDS011;11870;53.084;18.206;2023-09-19T01:50:49;10.43;;;7.30;;
23394;SDS011;11870;53.084;18.206;2023-09-19T01:53:37;9.90;;;6.93;;
23394;SDS011;11870;53.084;18.206;2023-09-19T01:56:13;12.35;;;7.10;;
23394;SDS011;11870;53.084;18.206;2023-09-19T01:58:48;10.52;;;6.72;;
23394;SDS011;11870;53.084;18.206;2023-09-19T02:01:22;9.40;;;6.82;;
23394;SDS011;11870;53.084;18.206;2023-09-19T02:03:50;7.90;;;5.53;;
23394;SDS011;11870;53.084;18.206;2023-09-19T02:06:17;8.65;;;6.10;;
23394;SDS011;11870;53.084;18.206;2023-09-19T02:08:44;12.25;;;5.53;;
23394;SDS011;11870;53.084;18.206;2023-09-19T02:11:11;10.95;;;5.72;;
23394;SDS011;11870;53.084;18.206;2023-09-19T02:13:38;9.60;;;6.25;;
23394;SDS011;11870;53.084;18.206;2023-09-19T02:16:06;11.90;;;5.78;;
23394;SDS011;11870;53.084;18.206;2023-09-19T02:18:32;7.80;;;5.78;;
23394;SDS011;11870;53.084;18.206;2023-09-19T02:21:00;8.23;;;5.38;;
23394;SDS011;11870;53.084;18.206;2023-09-19T02:23:27;10.68;;;5.63;;
23394;SDS011;11870;53.084;18.206;2023-09-19T02:25:55;9.88;;;5.53;;
23394;SDS011;11870;53.084;18.206;2023-09-19T02:28:24;8.18;;;5.47;;
23394;SDS011;11870;53.084;18.206;2023-09-19T02:30:55;8.48;;;5.38;;
23394;SDS011;11870;53.084;18.206;2023-09-19T02:33:22;8.23;;;5.25;;
23394;SDS011;11870;53.084;18.206;2023-09-19T02:35:48;8.93;;;5.00;;
23394;SDS011;11870;53.084;18.206;2023-09-19T02:38:14;12.32;;;4.93;;
23394;SDS011;11870;53.084;18.206;2023-09-19T02:40:46;10.10;;;5.40;;
23394;SDS011;11870;53.084;18.206;2023-09-19T02:43:12;8.18;;;4.82;;
23394;SDS011;11870;53.084;18.206;2023-09-19T02:45:38;8.35;;;4.97;;
23394;SDS011;11870;53.084;18.206;2023-09-19T02:48:05;10.02;;;5.47;;
23394;SDS011;11870;53.084;18.206;2023-09-19T02:50:33;11.88;;;4.95;;
23394;SDS011;11870;53.084;18.206;2023-09-19T02:52:59;9.27;;;5.22;;
23394;SDS011;11870;53.084;18.206;2023-09-19T02:55:25;10.60;;;5.68;;
23394;SDS011;11870;53.084;18.206;2023-09-19T02:57:53;7.38;;;5.70;;
23394;SDS011;11870;53.084;18.206;2023-09-19T03:00:20;10.02;;;5.88;;
23394;SDS011;11870;53.084;18.206;2023-09-19T03:02:52;13.70;;;6.45;;
23394;SDS011;11870;53.084;18.206;2023-09-19T03:05:20;11.73;;;6.00;;
23394;SDS011;11870;53.084;18.206;2023-09-19T03:07:47;8.90;;;5.80;;
23394;SDS011;11870;53.084;18.206;2023-09-19T03:10:16;9.18;;;6.25;;
23394;SDS011;11870;53.084;18.206;2023-09-19T03:12:43;22.30;;;8.20;;
23394;SDS011;11870;53.084;18.206;2023-09-19T03:15:10;13.77;;;7.55;;
23394;SDS011;11870;53.084;18.206;2023-09-19T03:17:37;15.23;;;8.18;;
23394;SDS011;11870;53.084;18.206;2023-09-19T03:20:03;19.83;;;8.55;;
23394;SDS011;11870;53.084;18.206;2023-09-19T03:22:33;15.38;;;9.05;;
23394;SDS011;11870;53.084;18.206;2023-09-19T03:24:59;19.17;;;8.18;;
23394;SDS011;11870;53.084;18.206;2023-09-19T03:27:26;15.60;;;7.60;;
23394;SDS011;11870;53.084;18.206;2023-09-19T03:29:52;15.05;;;7.55;;
23394;SDS011;11870;53.084;18.206;2023-09-19T03:32:19;12.40;;;7.53;;
23394;SDS011;11870;53.084;18.206;2023-09-19T03:34:45;18.98;;;7.90;;
23394;SDS011;11870;53.084;18.206;2023-09-19T03:37:14;12.60;;;7.75;;
23394;SDS011;11870;53.084;18.206;2023-09-19T03:39:40;13.57;;;6.78;;
23394;SDS011;11870;53.084;18.206;2023-09-19T03:42:06;12.73;;;6.97;;
23394;SDS011;11870;53.084;18.206;2023-09-19T03:44:32;13.95;;;7.07;;
23394;SDS011;11870;53.084;18.206;2023-09-19T03:46:59;15.15;;;7.20;;
23394;SDS011;11870;53.084;18.206;2023-09-19T03:49:25;14.27;;;7.50;;
23394;SDS011;11870;53.084;18.206;2023-09-19T03:51:52;12.60;;;7.20;;
23394;SDS011;11870;53.084;18.206;2023-09-19T03:54:18;15.43;;;7.68;;
23394;SDS011;11870;53.084;18.206;2023-09-19T03:56:45;15.30;;;7.57;;
23394;SDS011;11870;53.084;18.206;2023-09-19T03:59:11;16.05;;;8.07;;
23394;SDS011;11870;53.084;18.206;2023-09-19T04:01:38;11.18;;;6.80;;
23394;SDS011;11870;53.084;18.206;2023-09-19T04:04:06;13.38;;;7.22;;
23394;SDS011;11870;53.084;18.206;2023-09-19T04:06:37;10.25;;;7.00;;
23394;SDS011;11870;53.084;18.206;2023-09-19T04:09:03;12.73;;;7.30;;
23394;SDS011;11870;53.084;18.206;2023-09-19T04:11:32;13.85;;;7.72;;
23394;SDS011;11870;53.084;18.206;2023-09-19T04:13:59;19.23;;;11.10;;
23394;SDS011;11870;53.084;18.206;2023-09-19T04:16:25;12.60;;;7.32;;
23394;SDS011;11870;53.084;18.206;2023-09-19T04:18:51;14.70;;;7.20;;
23394;SDS011;11870;53.084;18.206;2023-09-19T04:21:18;11.63;;;7.65;;
23394;SDS011;11870;53.084;18.206;2023-09-19T04:23:44;16.42;;;7.28;;
23394;SDS011;11870;53.084;18.206;2023-09-19T04:26:11;8.98;;;6.50;;
23394;SDS011;11870;53.084;18.206;2023-09-19T04:28:37;15.18;;;6.65;;
23394;SDS011;11870;53.084;18.206;2023-09-19T04:31:05;11.43;;;6.78;;
23394;SDS011;11870;53.084;18.206;2023-09-19T04:33:33;10.85;;;7.00;;
23394;SDS011;11870;53.084;18.206;2023-09-19T04:36:00;13.70;;;7.22;;
23394;SDS011;11870;53.084;18.206;2023-09-19T04:38:28;14.63;;;9.00;;
23394;SDS011;11870;53.084;18.206;2023-09-19T04:40:58;15.30;;;8.55;;
23394;SDS011;11870;53.084;18.206;2023-09-19T04:43:25;13.23;;;6.70;;
23394;SDS011;11870;53.084;18.206;2023-09-19T04:45:52;11.27;;;6.72;;
23394;SDS011;11870;53.084;18.206;2023-09-19T04:48:24;14.70;;;7.10;;
23394;SDS011;11870;53.084;18.206;2023-09-19T04:50:50;18.00;;;7.28;;
23394;SDS011;11870;53.084;18.206;2023-09-19T04:53:17;12.10;;;6.63;;
23394;SDS011;11870;53.084;18.206;2023-09-19T04:55:49;10.27;;;6.25;;
23394;SDS011;11870;53.084;18.206;2023-09-19T04:58:18;11.15;;;7.18;;
23394;SDS011;11870;53.084;18.206;2023-09-19T05:00:45;16.50;;;7.07;;
23394;SDS011;11870;53.084;18.206;2023-09-19T05:03:11;9.77;;;6.20;;
23394;SDS011;11870;53.084;18.206;2023-09-19T05:05:38;14.27;;;6.75;;
23394;SDS011;11870;53.084;18.206;2023-09-19T05:08:06;11.68;;;6.70;;
23394;SDS011;11870;53.084;18.206;2023-09-19T05:10:34;11.88;;;6.60;;
23394;SDS011;11870;53.084;18.206;2023-09-19T05:13:04;10.82;;;6.65;;
23394;SDS011;11870;53.084;18.206;2023-09-19T05:15:30;10.55;;;5.97;;
23394;SDS011;11870;53.084;18.206;2023-09-19T05:17:57;15.35;;;6.80;;
23394;SDS011;11870;53.084;18.206;2023-09-19T05:20:24;12.50;;;5.97;;
23394;SDS011;11870;53.084;18.206;2023-09-19T05:22:58;9.18;;;5.95;;
23394;SDS011;11870;53.084;18.206;2023-09-19T05:25:28;9.52;;;5.55;;
23394;SDS011;11870;53.084;18.206;2023-09-19T05:27:56;11.02;;;6.28;;
23394;SDS011;11870;53.084;18.206;2023-09-19T05:30:23;11.63;;;6.10;;
23394;SDS011;11870;53.084;18.206;2023-09-19T05:32:49;11.38;;;5.72;;
23394;SDS011;11870;53.084;18.206;2023-09-19T05:35:16;8.98;;;5.68;;
23394;SDS011;11870;53.084;18.206;2023-09-19T05:37:43;11.90;;;5.72;;
23394;SDS011;11870;53.084;18.206;2023-09-19T05:40:09;9.55;;;6.10;;
23394;SDS011;11870;53.084;18.206;2023-09-19T05:42:37;9.43;;;5.47;;
23394;SDS011;11870;53.084;18.206;2023-09-19T05:45:05;8.60;;;5.38;;
23394;SDS011;11870;53.084;18.206;2023-09-19T05:47:32;8.45;;;5.72;;
23394;SDS011;11870;53.084;18.206;2023-09-19T05:49:58;8.43;;;5.00;;
23394;SDS011;11870;53.084;18.206;2023-09-19T05:52:24;11.00;;;4.82;;
23394;SDS011;11870;53.084;18.206;2023-09-19T05:54:52;6.88;;;4.20;;
23394;SDS011;11870;53.084;18.206;2023-09-19T05:57:18;8.98;;;5.35;;
23394;SDS011;11870;53.084;18.206;2023-09-19T05:59:45;12.10;;;5.28;;
23394;SDS011;11870;53.084;18.206;2023-09-19T06:02:12;7.70;;;4.38;;
23394;SDS011;11870;53.084;18.206;2023-09-19T06:04:39;10.57;;;4.75;;
23394;SDS011;11870;53.084;18.206;2023-09-19T06:07:06;6.18;;;4.20;;
23394;SDS011;11870;53.084;18.206;2023-09-19T06:09:32;7.65;;;4.38;;
23394;SDS011;11870;53.084;18.206;2023-09-19T06:11:59;7.05;;;4.72;;
23394;SDS011;11870;53.084;18.206;2023-09-19T06:14:29;6.22;;;3.67;;
23394;SDS011;11870;53.084;18.206;2023-09-19T06:35:20;6.40;;;5.45;;
23394;SDS011;11870;53.084;18.206;2023-09-19T06:37:47;5.90;;;4.78;;
23394;SDS011;11870;53.084;18.206;2023-09-19T06:43:35;8.30;;;5.63;;
23394;SDS011;11870;53.084;18.206;2023-09-19T06:46:02;6.22;;;4.93;;
23394;SDS011;11870;53.084;18.206;2023-09-19T06:52:10;7.30;;;5.75;;
23394;SDS011;11870;53.084;18.206;2023-09-19T06:54:40;9.77;;;6.13;;
23394;SDS011;11870;53.084;18.206;2023-09-19T06:57:07;11.05;;;5.90;;
23394;SDS011;11870;53.084;18.206;2023-09-19T07:06:14;7.97;;;5.28;;
23394;SDS011;11870;53.084;18.206;2023-09-19T07:08:41;9.73;;;5.75;;
23394;SDS011;11870;53.084;18.206;2023-09-19T07:11:27;7.95;;;5.78;;
23394;SDS011;11870;53.084;18.206;2023-09-19T07:28:22;9.45;;;5.45;;
23394;SDS011;11870;53.084;18.206;2023-09-19T07:30:49;12.23;;;5.40;;
23394;SDS011;11870;53.084;18.206;2023-09-19T07:36:58;9.95;;;5.50;;
23394;SDS011;11870;53.084;18.206;2023-09-19T07:39:25;8.23;;;5.35;;
23394;SDS011;11870;53.084;18.206;2023-09-19T07:41:51;10.88;;;5.68;;
23394;SDS011;11870;53.084;18.206;2023-09-19T07:44:19;7.60;;;5.10;;
23394;SDS011;11870;53.084;18.206;2023-09-19T07:46:46;7.50;;;5.15;;
23394;SDS011;11870;53.084;18.206;2023-09-19T08:00:18;9.90;;;5.32;;
23394;SDS011;11870;53.084;18.206;2023-09-19T08:06:26;10.32;;;5.25;;
23394;SDS011;11870;53.084;18.206;2023-09-19T08:08:55;8.45;;;5.43;;
23394;SDS011;11870;53.084;18.206;2023-09-19T08:11:22;9.02;;;5.28;;
23394;SDS011;11870;53.084;18.206;2023-09-19T08:13:50;10.45;;;5.47;;
23394;SDS011;11870;53.084;18.206;2023-09-19T08:16:16;6.70;;;5.07;;
23394;SDS011;11870;53.084;18.206;2023-09-19T08:26:07;6.60;;;5.45;;
23394;SDS011;11870;53.084;18.206;2023-09-19T08:28:34;6.00;;;5.40;;
23394;SDS011;11870;53.084;18.206;2023-09-19T08:31:04;10.13;;;5.90;;
23394;SDS011;11870;53.084;18.206;2023-09-19T08:36:55;9.45;;;6.38;;
23394;SDS011;11870;53.084;18.206;2023-09-19T08:39:22;7.85;;;6.07;;
23394;SDS011;11870;53.084;18.206;2023-09-19T08:41:49;8.20;;;6.18;;
23394;SDS011;11870;53.084;18.206;2023-09-19T08:44:15;6.38;;;5.53;;
23394;SDS011;11870;53.084;18.206;2023-09-19T08:46:42;8.65;;;6.07;;
23394;SDS011;11870;53.084;18.206;2023-09-19T08:56:32;6.97;;;5.15;;
23394;SDS011;11870;53.084;18.206;2023-09-19T08:59:00;8.77;;;4.75;;
23394;SDS011;11870;53.084;18.206;2023-09-19T09:15:55;7.45;;;4.30;;
23394;SDS011;11870;53.084;18.206;2023-09-19T09:25:52;4.95;;;2.80;;
23394;SDS011;11870;53.084;18.206;2023-09-19T09:32:15;5.45;;;2.78;;
23394;SDS011;11870;53.084;18.206;2023-09-19T09:34:49;4.93;;;2.65;;
23394;SDS011;11870;53.084;18.206;2023-09-19T09:37:19;5.28;;;2.50;;
23394;SDS011;11870;53.084;18.206;2023-09-19T09:40:20;5.95;;;2.88;;
23394;SDS011;11870;53.084;18.206;2023-09-19T09:42:39;4.28;;;2.40;;
23394;SDS011;11870;53.084;18.206;2023-09-19T10:02:28;3.70;;;2.20;;
23394;SDS011;11870;53.084;18.206;2023-09-19T10:04:58;4.07;;;2.60;;
23394;SDS011;11870;53.084;18.206;2023-09-19T10:07:40;4.25;;;2.72;;
23394;SDS011;11870;53.084;18.206;2023-09-19T10:10:13;5.63;;;2.72;;
23394;SDS011;11870;53.084;18.206;2023-09-19T10:12:47;6.65;;;2.67;;
23394;SDS011;11870;53.084;18.206;2023-09-19T10:15:15;3.95;;;2.28;;
23394;SDS011;11870;53.084;18.206;2023-09-19T10:28:29;4.47;;;1.90;;
23394;SDS011;11870;53.084;18.206;2023-09-19T10:30:55;3.67;;;1.70;;
23394;SDS011;11870;53.084;18.206;2023-09-19T10:44:26;4.28;;;1.63;;
23394;SDS011;11870;53.084;18.206;2023-09-19T10:46:56;2.55;;;1.50;;
23394;SDS011;11870;53.084;18.206;2023-09-19T11:29:30;4.70;;;2.00;;
23394;SDS011;11870;53.084;18.206;2023-09-19T11:31:57;3.53;;;1.80;;
23394;SDS011;11870;53.084;18.206;2023-09-19T11:55:16;3.30;;;1.48;;
23394;SDS011;11870;53.084;18.206;2023-09-19T11:57:47;2.88;;;1.60;;
23394;SDS011;11870;53.084;18.206;2023-09-19T12:00:19;4.13;;;1.77;;
23394;SDS011;11870;53.084;18.206;2023-09-19T12:02:46;5.35;;;1.80;;
23394;SDS011;11870;53.084;18.206;2023-09-19T12:05:27;3.38;;;1.73;;
23394;SDS011;11870;53.084;18.206;2023-09-19T12:07:54;3.15;;;1.50;;
23394;SDS011;11870;53.084;18.206;2023-09-19T12:10:21;3.80;;;1.55;;
23394;SDS011;11870;53.084;18.206;2023-09-19T12:12:48;5.78;;;1.95;;
23394;SDS011;11870;53.084;18.206;2023-09-19T12:15:24;3.67;;;1.70;;
23394;SDS011;11870;53.084;18.206;2023-09-19T12:36:19;4.68;;;1.63;;
23394;SDS011;11870;53.084;18.206;2023-09-19T12:38:50;3.15;;;1.52;;
23394;SDS011;11870;53.084;18.206;2023-09-19T12:41:19;4.75;;;1.40;;
23394;SDS011;11870;53.084;18.206;2023-09-19T12:43:47;3.13;;;1.52;;
23394;SDS011;11870;53.084;18.206;2023-09-19T12:46:14;5.03;;;1.58;;
23394;SDS011;11870;53.084;18.206;2023-09-19T12:52:21;2.45;;;1.45;;
23394;SDS011;11870;53.084;18.206;2023-09-19T12:54:51;4.57;;;1.60;;
23394;SDS011;11870;53.084;18.206;2023-09-19T12:57:24;3.92;;;1.70;;
23394;SDS011;11870;53.084;18.206;2023-09-19T12:59:54;2.58;;;1.42;;
23394;SDS011;11870;53.084;18.206;2023-09-19T13:13:22;3.28;;;1.50;;
23394;SDS011;11870;53.084;18.206;2023-09-19T13:15:53;4.32;;;1.70;;
23394;SDS011;11870;53.084;18.206;2023-09-19T13:22:01;3.63;;;1.60;;
23394;SDS011;11870;53.084;18.206;2023-09-19T13:24:28;4.63;;;1.98;;
23394;SDS011;11870;53.084;18.206;2023-09-19T13:26:56;3.53;;;2.00;;
23394;SDS011;11870;53.084;18.206;2023-09-19T13:29:22;2.47;;;1.73;;
23394;SDS011;11870;53.084;18.206;2023-09-19T13:31:49;4.07;;;1.80;;
23394;SDS011;11870;53.084;18.206;2023-09-19T13:34:16;3.22;;;1.50;;
23394;SDS011;11870;53.084;18.206;2023-09-19T13:36:43;2.40;;;1.30;;
23394;SDS011;11870;53.084;18.206;2023-09-19T13:42:50;7.22;;;1.90;;
23394;SDS011;11870;53.084;18.206;2023-09-19T13:45:19;6.28;;;2.08;;
23394;SDS011;11870;53.084;18.206;2023-09-19T13:51:31;2.60;;;1.88;;
23394;SDS011;11870;53.084;18.206;2023-09-19T13:53:58;6.35;;;2.30;;
23394;SDS011;11870;53.084;18.206;2023-09-19T13:56:27;4.55;;;3.00;;
23394;SDS011;11870;53.084;18.206;2023-09-19T13:58:54;3.67;;;1.98;;
23394;SDS011;11870;53.084;18.206;2023-09-19T14:01:20;3.50;;;2.30;;
23394;SDS011;11870;53.084;18.206;2023-09-19T14:03:47;5.93;;;2.13;;
23394;SDS011;11870;53.084;18.206;2023-09-19T14:06:16;4.28;;;2.30;;
23394;SDS011;11870;53.084;18.206;2023-09-19T14:08:43;4.35;;;2.10;;
23394;SDS011;11870;53.084;18.206;2023-09-19T14:11:13;5.63;;;2.15;;
23394;SDS011;11870;53.084;18.206;2023-09-19T14:13:39;6.13;;;2.33;;
23394;SDS011;11870;53.084;18.206;2023-09-19T14:16:06;4.88;;;2.08;;
23394;SDS011;11870;53.084;18.206;2023-09-19T14:25:56;3.83;;;1.95;;
23394;SDS011;11870;53.084;18.206;2023-09-19T14:28:22;5.00;;;1.98;;
23394;SDS011;11870;53.084;18.206;2023-09-19T14:30:50;5.60;;;2.50;;
23394;SDS011;11870;53.084;18.206;2023-09-19T14:33:17;4.80;;;2.75;;
23394;SDS011;11870;53.084;18.206;2023-09-19T14:35:43;5.40;;;2.30;;
23394;SDS011;11870;53.084;18.206;2023-09-19T14:38:09;7.22;;;2.42;;
23394;SDS011;11870;53.084;18.206;2023-09-19T14:40:36;3.92;;;2.20;;
23394;SDS011;11870;53.084;18.206;2023-09-19T14:43:02;3.80;;;2.38;;
23394;SDS011;11870;53.084;18.206;2023-09-19T14:45:29;4.72;;;2.10;;
23394;SDS011;11870;53.084;18.206;2023-09-19T14:51:37;4.35;;;2.50;;
23394;SDS011;11870;53.084;18.206;2023-09-19T14:54:09;5.47;;;2.60;;
23394;SDS011;11870;53.084;18.206;2023-09-19T14:56:35;5.72;;;2.50;;
23394;SDS011;11870;53.084;18.206;2023-09-19T14:59:02;4.93;;;2.42;;
23394;SDS011;11870;53.084;18.206;2023-09-19T15:01:29;3.92;;;2.40;;
23394;SDS011;11870;53.084;18.206;2023-09-19T15:03:55;5.63;;;2.47;;
23394;SDS011;11870;53.084;18.206;2023-09-19T15:06:22;5.40;;;2.30;;
23394;SDS011;11870;53.084;18.206;2023-09-19T15:08:48;4.68;;;2.67;;
23394;SDS011;11870;53.084;18.206;2023-09-19T15:11:18;10.63;;;2.50;;
23394;SDS011;11870;53.084;18.206;2023-09-19T15:13:46;5.18;;;2.60;;
23394;SDS011;11870;53.084;18.206;2023-09-19T15:16:13;5.40;;;2.67;;
23394;SDS011;11870;53.084;18.206;2023-09-19T15:22:20;4.90;;;2.72;;
23394;SDS011;11870;53.084;18.206;2023-09-19T15:24:48;4.82;;;2.60;;
23394;SDS011;11870;53.084;18.206;2023-09-19T15:27:14;5.90;;;2.40;;
23394;SDS011;11870;53.084;18.206;2023-09-19T15:29:42;6.95;;;3.35;;
23394;SDS011;11870;53.084;18.206;2023-09-19T15:32:09;6.53;;;2.97;;
23394;SDS011;11870;53.084;18.206;2023-09-19T15:34:35;6.95;;;2.88;;
23394;SDS011;11870;53.084;18.206;2023-09-19T15:37:01;5.40;;;2.72;;
23394;SDS011;11870;53.084;18.206;2023-09-19T15:39:31;4.40;;;2.63;;
23394;SDS011;11870;53.084;18.206;2023-09-19T15:41:58;5.75;;;2.60;;
23394;SDS011;11870;53.084;18.206;2023-09-19T15:44:25;4.45;;;2.75;;
23394;SDS011;11870;53.084;18.206;2023-09-19T15:46:52;5.78;;;2.72;;
23394;SDS011;11870;53.084;18.206;2023-09-19T15:52:59;7.13;;;2.78;;
23394;SDS011;11870;53.084;18.206;2023-09-19T15:55:26;5.03;;;3.05;;
23394;SDS011;11870;53.084;18.206;2023-09-19T15:57:52;5.47;;;2.55;;
23394;SDS011;11870;53.084;18.206;2023-09-19T16:00:19;5.82;;;2.78;;
23394;SDS011;11870;53.084;18.206;2023-09-19T16:02:46;5.45;;;2.78;;
23394;SDS011;11870;53.084;18.206;2023-09-19T16:05:16;4.97;;;2.63;;
23394;SDS011;11870;53.084;18.206;2023-09-19T16:07:42;4.75;;;3.15;;
23394;SDS011;11870;53.084;18.206;2023-09-19T16:10:09;7.15;;;3.00;;
23394;SDS011;11870;53.084;18.206;2023-09-19T16:12:35;5.70;;;2.83;;
23394;SDS011;11870;53.084;18.206;2023-09-19T16:15:03;6.03;;;3.00;;
23394;SDS011;11870;53.084;18.206;2023-09-19T16:17:29;4.70;;;2.95;;
23394;SDS011;11870;53.084;18.206;2023-09-19T16:23:37;4.05;;;2.78;;
23394;SDS011;11870;53.084;18.206;2023-09-19T16:26:04;6.05;;;3.22;;
23394;SDS011;11870;53.084;18.206;2023-09-19T16:28:31;10.02;;;3.00;;
23394;SDS011;11870;53.084;18.206;2023-09-19T16:31:03;4.55;;;3.30;;
23394;SDS011;11870;53.084;18.206;2023-09-19T16:33:31;6.70;;;3.50;;
23394;SDS011;11870;53.084;18.206;2023-09-19T16:36:02;7.55;;;3.50;;
23394;SDS011;11870;53.084;18.206;2023-09-19T16:38:29;9.95;;;4.03;;
23394;SDS011;11870;53.084;18.206;2023-09-19T16:40:56;8.32;;;3.63;;
23394;SDS011;11870;53.084;18.206;2023-09-19T16:43:23;7.72;;;3.78;;
23394;SDS011;11870;53.084;18.206;2023-09-19T16:45:56;9.45;;;3.83;;
23394;SDS011;11870;53.084;18.206;2023-09-19T16:52:05;8.70;;;3.35;;
23394;SDS011;11870;53.084;18.206;2023-09-19T16:54:32;8.02;;;3.47;;
23394;SDS011;11870;53.084;18.206;2023-09-19T16:56:59;6.53;;;3.40;;
23394;SDS011;11870;53.084;18.206;2023-09-19T16:59:27;7.35;;;3.28;;
23394;SDS011;11870;53.084;18.206;2023-09-19T17:01:54;10.18;;;4.00;;
23394;SDS011;11870;53.084;18.206;2023-09-19T17:04:22;5.75;;;3.50;;
23394;SDS011;11870;53.084;18.206;2023-09-19T17:06:49;8.70;;;4.00;;
23394;SDS011;11870;53.084;18.206;2023-09-19T17:12:56;7.20;;;3.88;;
23394;SDS011;11870;53.084;18.206;2023-09-19T17:15:23;6.95;;;4.20;;
23394;SDS011;11870;53.084;18.206;2023-09-19T17:21:30;6.97;;;4.05;;
23394;SDS011;11870;53.084;18.206;2023-09-19T17:23:57;9.25;;;4.50;;
23394;SDS011;11870;53.084;18.206;2023-09-19T17:26:24;10.35;;;4.60;;
23394;SDS011;11870;53.084;18.206;2023-09-19T17:28:51;9.75;;;4.40;;
23394;SDS011;11870;53.084;18.206;2023-09-19T17:31:19;10.23;;;5.10;;
23394;SDS011;11870;53.084;18.206;2023-09-19T17:33:50;8.73;;;4.70;;
23394;SDS011;11870;53.084;18.206;2023-09-19T17:36:17;8.48;;;4.93;;
23394;SDS011;11870;53.084;18.206;2023-09-19T17:38:44;7.70;;;4.40;;
23394;SDS011;11870;53.084;18.206;2023-09-19T17:41:12;12.27;;;5.20;;
23394;SDS011;11870;53.084;18.206;2023-09-19T17:43:40;6.85;;;4.55;;
23394;SDS011;11870;53.084;18.206;2023-09-19T17:46:10;11.32;;;5.30;;
23394;SDS011;11870;53.084;18.206;2023-09-19T17:52:17;12.20;;;5.22;;
23394;SDS011;11870;53.084;18.206;2023-09-19T17:54:44;11.57;;;5.05;;
23394;SDS011;11870;53.084;18.206;2023-09-19T17:57:10;7.28;;;4.80;;
23394;SDS011;11870;53.084;18.206;2023-09-19T17:59:37;7.78;;;4.72;;
23394;SDS011;11870;53.084;18.206;2023-09-19T18:05:45;9.60;;;5.38;;
23394;SDS011;11870;53.084;18.206;2023-09-19T18:08:11;13.25;;;5.72;;
23394;SDS011;11870;53.084;18.206;2023-09-19T18:10:39;10.05;;;5.40;;
23394;SDS011;11870;53.084;18.206;2023-09-19T18:13:05;10.10;;;5.45;;
23394;SDS011;11870;53.084;18.206;2023-09-19T18:15:35;9.30;;;5.40;;
23394;SDS011;11870;53.084;18.206;2023-09-19T18:21:44;11.63;;;6.50;;
23394;SDS011;11870;53.084;18.206;2023-09-19T18:24:12;12.30;;;6.50;;
23394;SDS011;11870;53.084;18.206;2023-09-19T18:26:42;8.80;;;5.80;;
23394;SDS011;11870;53.084;18.206;2023-09-19T18:29:09;12.70;;;6.18;;
23394;SDS011;11870;53.084;18.206;2023-09-19T18:31:36;11.07;;;6.18;;
23394;SDS011;11870;53.084;18.206;2023-09-19T18:34:05;13.77;;;5.85;;
23394;SDS011;11870;53.084;18.206;2023-09-19T18:36:32;8.13;;;5.78;;
23394;SDS011;11870;53.084;18.206;2023-09-19T18:38:59;10.52;;;5.80;;
23394;SDS011;11870;53.084;18.206;2023-09-19T18:41:26;11.85;;;5.90;;
23394;SDS011;11870;53.084;18.206;2023-09-19T18:43:52;9.82;;;6.05;;
23394;SDS011;11870;53.084;18.206;2023-09-19T18:46:18;8.57;;;5.50;;
23394;SDS011;11870;53.084;18.206;2023-09-19T18:52:26;8.77;;;5.78;;
23394;SDS011;11870;53.084;18.206;2023-09-19T18:54:52;9.30;;;5.97;;
23394;SDS011;11870;53.084;18.206;2023-09-19T18:57:19;13.60;;;5.85;;
23394;SDS011;11870;53.084;18.206;2023-09-19T18:59:45;12.68;;;5.93;;
23394;SDS011;11870;53.084;18.206;2023-09-19T19:02:12;12.40;;;6.97;;
23394;SDS011;11870;53.084;18.206;2023-09-19T19:04:38;11.27;;;6.68;;
23394;SDS011;11870;53.084;18.206;2023-09-19T19:07:05;10.13;;;6.22;;
23394;SDS011;11870;53.084;18.206;2023-09-19T19:09:35;9.82;;;6.05;;
23394;SDS011;11870;53.084;18.206;2023-09-19T19:12:01;11.93;;;7.05;;
23394;SDS011;11870;53.084;18.206;2023-09-19T19:14:28;11.50;;;6.20;;
23394;SDS011;11870;53.084;18.206;2023-09-19T19:16:54;10.57;;;7.03;;
23394;SDS011;11870;53.084;18.206;2023-09-19T19:23:04;11.27;;;7.43;;
23394;SDS011;11870;53.084;18.206;2023-09-19T19:25:32;13.95;;;7.35;;
23394;SDS011;11870;53.084;18.206;2023-09-19T19:27:58;19.35;;;12.55;;
23394;SDS011;11870;53.084;18.206;2023-09-19T19:30:25;26.90;;;11.15;;
23394;SDS011;11870;53.084;18.206;2023-09-19T19:32:51;14.02;;;9.30;;
23394;SDS011;11870;53.084;18.206;2023-09-19T19:35:17;15.05;;;8.18;;
23394;SDS011;11870;53.084;18.206;2023-09-19T19:37:44;11.35;;;7.35;;
23394;SDS011;11870;53.084;18.206;2023-09-19T19:40:10;13.82;;;7.50;;
23394;SDS011;11870;53.084;18.206;2023-09-19T19:42:37;12.18;;;7.03;;
23394;SDS011;11870;53.084;18.206;2023-09-19T19:45:04;11.65;;;8.10;;
23394;SDS011;11870;53.084;18.206;2023-09-19T19:47:30;14.07;;;7.90;;
23394;SDS011;11870;53.084;18.206;2023-09-19T19:53:37;12.27;;;7.32;;
23394;SDS011;11870;53.084;18.206;2023-09-19T19:56:04;13.80;;;6.85;;